createdAt,value
2019-05-10T00:01:52.277Z,74.00
2019-05-10T00:04:39.237Z,74.00
2019-05-10T00:07:25.582Z,74.00
2019-05-10T00:09:53.471Z,73.90
2019-05-10T00:12:29.562Z,74.00
2019-05-10T00:14:58.169Z,74.00
2019-05-10T00:17:26.674Z,74.00
2019-05-10T00:19:55.303Z,73.90
2019-05-10T00:22:23.998Z,74.10
2019-05-10T00:25:03.138Z,73.80
2019-05-10T00:27:22.861Z,73.80
2019-05-10T00:29:51.367Z,73.80
2019-05-10T00:32:19.849Z,73.90
2019-05-10T00:34:48.386Z,73.90
2019-05-10T00:37:16.889Z,74.00
2019-05-10T00:39:45.405Z,73.90
2019-05-10T00:42:14.049Z,74.00
2019-05-10T00:44:42.714Z,74.00
2019-05-10T00:47:11.296Z,74.00
2019-05-10T00:49:39.910Z,73.80
2019-05-10T00:52:08.460Z,73.90
2019-05-10T00:54:37.033Z,73.90
2019-05-10T00:57:05.667Z,73.90
2019-05-10T00:59:34.277Z,74.00
2019-05-10T01:02:04.567Z,73.90
2019-05-10T01:04:33.162Z,73.90
2019-05-10T01:07:03.354Z,74.00
2019-05-10T01:09:31.960Z,73.90
2019-05-10T01:12:00.434Z,74.00
2019-05-10T01:14:29.035Z,74.00
2019-05-10T01:16:57.503Z,73.80
2019-05-10T01:19:25.959Z,73.90
2019-05-10T01:21:54.454Z,73.90
2019-05-10T01:24:23.139Z,73.90
2019-05-10T01:26:51.775Z,73.90
2019-05-10T01:29:20.323Z,73.90
2019-05-10T01:31:50.369Z,74.00
2019-05-10T01:34:18.865Z,74.00
2019-05-10T01:36:47.347Z,73.90
2019-05-10T01:39:15.812Z,74.00
2019-05-10T01:41:44.269Z,73.80
2019-05-10T01:44:14.356Z,73.80
2019-05-10T01:46:42.843Z,73.80
2019-05-10T01:49:11.440Z,73.80
2019-05-10T01:51:40.063Z,73.90
2019-05-10T01:54:08.569Z,73.90
2019-05-10T01:56:37.148Z,73.90
2019-05-10T01:59:05.723Z,73.90
2019-05-10T02:01:34.217Z,73.90
2019-05-10T02:04:02.733Z,73.90
2019-05-10T02:06:31.265Z,73.80
2019-05-10T02:09:00.423Z,73.80
2019-05-10T02:11:29.081Z,73.90
2019-05-10T02:13:59.210Z,73.70
2019-05-10T02:16:27.774Z,73.80
2019-05-10T02:18:56.270Z,73.80
2019-05-10T02:21:24.771Z,73.90
2019-05-10T02:23:53.221Z,73.90
2019-05-10T02:26:21.725Z,73.80
2019-05-10T02:28:50.206Z,74.00
2019-05-10T02:31:21.680Z,73.90
2019-05-10T02:33:49.123Z,73.70
2019-05-10T02:36:17.757Z,73.80
2019-05-10T02:38:46.341Z,73.80
2019-05-10T02:41:15.005Z,73.80
2019-05-10T02:43:43.666Z,73.80
2019-05-10T02:46:12.282Z,73.80
2019-05-10T02:48:40.777Z,73.90
2019-05-10T02:51:09.383Z,73.80
2019-05-10T02:53:38.188Z,73.90
2019-05-10T02:56:06.773Z,73.90
2019-05-10T02:58:35.504Z,73.70
2019-05-10T03:01:08.996Z,73.80
2019-05-10T03:03:40.274Z,73.80
2019-05-10T03:06:09.019Z,73.90
2019-05-10T03:08:49.152Z,74.00
2019-05-10T03:11:17.929Z,73.90
2019-05-10T03:13:49.223Z,74.00
2019-05-10T03:16:20.249Z,74.00
2019-05-10T03:18:50.783Z,74.80
2019-05-10T03:21:22.652Z,74.00
2019-05-10T03:23:51.332Z,73.80
2019-05-10T03:26:19.984Z,73.80
2019-05-10T03:28:48.627Z,73.90
2019-05-10T03:31:17.294Z,73.90
2019-05-10T03:33:54.280Z,74.80
2019-05-10T03:36:16.250Z,73.90
2019-05-10T03:38:44.917Z,74.00
2019-05-10T03:41:13.536Z,74.00
2019-05-10T03:43:44.098Z,74.00
2019-05-10T03:46:12.641Z,74.00
2019-05-10T03:48:41.146Z,74.10
2019-05-10T03:51:12.573Z,73.80
2019-05-10T03:53:41.096Z,73.90
2019-05-10T03:56:11.215Z,73.90
2019-05-10T03:58:39.792Z,74.00
2019-05-10T04:01:08.300Z,74.00
2019-05-10T04:03:36.800Z,74.10
2019-05-10T04:06:05.332Z,74.20
2019-05-10T04:08:35.561Z,74.20
2019-05-10T04:11:04.134Z,74.10
2019-05-10T04:13:32.748Z,74.20
2019-05-10T04:16:01.313Z,74.10
2019-05-10T04:18:29.894Z,74.00
2019-05-10T04:20:58.479Z,74.00
2019-05-10T04:23:27.059Z,74.10
2019-05-10T04:25:57.098Z,74.10
2019-05-10T04:28:25.670Z,74.30
2019-05-10T04:30:54.128Z,74.20
2019-05-10T04:33:22.712Z,74.30
2019-05-10T04:35:51.206Z,74.20
2019-05-10T04:38:19.688Z,74.20
2019-05-10T04:40:51.369Z,74.20
2019-05-10T04:43:19.925Z,73.90
2019-05-10T04:45:48.516Z,73.90
2019-05-10T04:48:17.000Z,74.00
2019-05-10T04:50:49.278Z,74.10
2019-05-10T04:53:17.255Z,74.10
2019-05-10T04:55:57.771Z,74.20
2019-05-10T04:58:26.300Z,74.10
2019-05-10T05:00:54.922Z,74.10
2019-05-10T05:03:25.611Z,74.10
2019-05-10T05:05:54.181Z,74.00
2019-05-10T05:08:22.768Z,73.70
2019-05-10T05:10:51.370Z,73.60
2019-05-10T05:13:19.982Z,73.70
2019-05-10T05:15:48.536Z,73.60
2019-05-10T05:18:17.205Z,73.60
2019-05-10T05:20:45.786Z,73.60
2019-05-10T05:23:14.385Z,73.50
2019-05-10T05:25:45.534Z,73.70
2019-05-10T05:28:18.331Z,73.40
2019-05-10T05:30:46.243Z,73.30
2019-05-10T05:33:20.075Z,73.40
2019-05-10T05:35:48.700Z,73.60
2019-05-10T05:38:17.355Z,74.00
2019-05-10T05:40:47.222Z,74.90
2019-05-10T05:43:15.807Z,74.10
2019-05-10T05:45:44.711Z,73.90
2019-05-10T05:48:21.409Z,73.80
2019-05-10T05:50:49.344Z,73.60
2019-05-10T05:53:22.084Z,73.60
2019-05-10T05:55:48.549Z,73.80
2019-05-10T05:58:26.634Z,73.80
2019-05-10T06:00:49.085Z,74.00
2019-05-10T06:03:27.457Z,73.40
2019-05-10T06:05:49.579Z,73.40
2019-05-10T06:08:24.694Z,73.20
2019-05-10T06:10:57.393Z,73.30
2019-05-10T06:13:23.593Z,74.30
2019-05-10T06:15:53.084Z,73.30
2019-05-10T06:18:24.045Z,73.40
2019-05-10T06:20:53.766Z,73.20
2019-05-10T06:23:22.518Z,73.40
2019-05-10T06:25:52.330Z,73.20
2019-05-10T06:28:26.833Z,73.40
2019-05-10T06:30:58.798Z,73.50
2019-05-10T06:33:29.262Z,73.30
2019-05-10T06:35:58.946Z,73.40
2019-05-10T06:38:30.481Z,73.30
2019-05-10T06:40:59.151Z,73.20
2019-05-10T06:43:51.519Z,73.20
2019-05-10T06:46:17.026Z,73.30
2019-05-10T06:48:47.178Z,73.10
2019-05-10T06:51:17.357Z,73.40
2019-05-10T06:53:51.960Z,74.40
2019-05-10T06:56:17.851Z,73.60
2019-05-10T06:58:46.389Z,73.60
2019-05-10T07:01:15.070Z,73.30
2019-05-10T07:03:43.647Z,73.40
2019-05-10T07:06:12.249Z,74.00
2019-05-10T07:08:51.949Z,73.70
2019-05-10T07:11:18.835Z,73.50
2019-05-10T07:13:53.074Z,73.10
2019-05-10T07:16:24.428Z,73.80
2019-05-10T07:18:59.872Z,73.40
2019-05-10T07:21:24.839Z,73.60
2019-05-10T07:23:53.419Z,73.30
2019-05-10T07:26:24.221Z,73.60
2019-05-10T07:28:57.455Z,74.80
2019-05-10T07:31:23.841Z,73.40
2019-05-10T07:33:58.692Z,73.80
2019-05-10T07:36:30.682Z,73.40
2019-05-10T07:38:57.690Z,73.30
2019-05-10T07:41:32.140Z,73.40
2019-05-10T07:44:15.719Z,72.90
2019-05-10T07:46:53.856Z,73.20
2019-05-10T07:49:38.914Z,73.00
2019-05-10T07:52:07.452Z,73.00
2019-05-10T07:54:37.555Z,73.10
2019-05-10T07:57:06.534Z,72.70
2019-05-10T07:59:49.520Z,72.70
2019-05-10T08:02:12.242Z,72.80
2019-05-10T08:04:35.836Z,73.10
2019-05-10T08:07:07.456Z,73.10
2019-05-10T08:09:37.060Z,73.80
2019-05-10T08:12:05.604Z,72.90
2019-05-10T08:14:34.195Z,72.80
2019-05-10T08:17:06.235Z,72.80
2019-05-10T08:19:37.637Z,72.90
2019-05-10T08:22:09.226Z,72.60
2019-05-10T08:24:37.188Z,72.60
2019-05-10T08:27:11.465Z,73.10
2019-05-10T08:29:44.105Z,72.70
2019-05-10T08:32:08.599Z,73.10
2019-05-10T08:34:39.339Z,73.10
2019-05-10T08:37:09.153Z,72.60
2019-05-10T08:39:45.325Z,73.00
2019-05-10T08:42:29.327Z,72.40
2019-05-10T08:44:39.781Z,72.60
2019-05-10T08:47:16.181Z,71.60
2019-05-10T08:49:46.560Z,71.80
2019-05-10T08:52:08.823Z,72.10
2019-05-10T08:54:37.388Z,72.20
2019-05-10T08:57:08.806Z,71.70
2019-05-10T08:59:37.389Z,71.90
2019-05-10T09:02:07.595Z,71.80
2019-05-10T09:04:42.821Z,71.30
2019-05-10T09:07:06.522Z,71.60
2019-05-10T09:09:45.722Z,71.50
2019-05-10T09:12:13.194Z,71.80
2019-05-10T09:14:43.113Z,71.10
2019-05-10T09:17:14.755Z,71.50
2019-05-10T09:19:45.885Z,71.70
2019-05-10T09:22:14.526Z,70.80
2019-05-10T09:24:48.688Z,69.50
2019-05-10T09:27:13.488Z,70.20
2019-05-10T09:29:43.055Z,69.20
2019-05-10T09:32:12.511Z,70.40
2019-05-10T09:34:42.649Z,69.10
2019-05-10T09:37:17.578Z,70.50
2019-05-10T09:39:43.999Z,70.10
2019-05-10T09:42:25.124Z,68.40
2019-05-10T09:44:45.819Z,68.80
2019-05-10T09:47:13.291Z,69.90
2019-05-10T09:49:45.174Z,69.40
2019-05-10T09:52:13.419Z,67.60
2019-05-10T09:54:42.516Z,68.60
2019-05-10T09:57:11.185Z,69.40
2019-05-10T09:59:39.776Z,67.60
2019-05-10T10:02:14.322Z,69.40
2019-05-10T10:04:43.212Z,66.90
2019-05-10T10:07:13.367Z,68.80
2019-05-10T10:09:44.606Z,69.00
2019-05-10T10:12:12.489Z,68.40
2019-05-10T10:14:43.218Z,68.50
2019-05-10T10:17:17.367Z,66.50
2019-05-10T10:19:44.808Z,67.00
2019-05-10T10:22:13.441Z,67.30
2019-05-10T10:24:43.822Z,68.30
2019-05-10T10:27:13.890Z,68.10
2019-05-10T10:29:48.773Z,68.40
2019-05-10T10:32:24.600Z,68.70
2019-05-10T10:34:54.764Z,68.10
2019-05-10T10:37:31.344Z,67.80
2019-05-10T10:40:05.361Z,66.30
2019-05-10T10:42:37.788Z,68.00
2019-05-10T10:45:12.440Z,67.10
2019-05-10T10:47:40.482Z,67.20
2019-05-10T10:50:13.346Z,66.00
2019-05-10T10:52:40.180Z,67.00
2019-05-10T10:55:15.715Z,67.90
2019-05-10T10:57:44.875Z,68.00
2019-05-10T11:00:23.660Z,68.30
2019-05-10T11:02:53.675Z,67.70
2019-05-10T11:05:23.827Z,67.70
2019-05-10T11:08:00.901Z,67.90
2019-05-10T11:10:36.275Z,68.20
2019-05-10T11:13:14.022Z,68.40
2019-05-10T11:15:38.657Z,68.00
2019-05-10T11:18:07.325Z,68.60
2019-05-10T11:20:41.899Z,68.50
2019-05-10T11:23:24.516Z,67.00
2019-05-10T11:25:56.528Z,68.00
2019-05-10T11:28:29.473Z,67.30
2019-05-10T11:30:57.864Z,66.50
2019-05-10T11:33:32.872Z,67.50
2019-05-10T11:36:06.447Z,67.00
2019-05-10T11:38:28.405Z,67.80
2019-05-10T11:40:57.260Z,67.80
2019-05-10T11:43:27.151Z,67.90
2019-05-10T11:46:01.475Z,67.70
2019-05-10T11:48:37.141Z,66.10
2019-05-10T11:51:05.583Z,67.70
2019-05-10T11:53:33.263Z,67.90
2019-05-10T11:56:17.097Z,67.80
2019-05-10T12:01:19.249Z,63.20
2019-05-10T12:03:46.554Z,62.40
2019-05-10T12:06:18.039Z,62.90
2019-05-10T12:08:46.631Z,62.30
2019-05-10T12:11:28.265Z,63.20
2019-05-10T12:13:46.719Z,61.80
2019-05-10T12:16:16.838Z,61.60
2019-05-10T12:19:02.458Z,61.30
2019-05-10T12:21:21.795Z,58.60
2019-05-10T12:23:51.868Z,60.40
2019-05-10T12:26:20.602Z,65.40
2019-05-10T12:28:51.170Z,60.40
2019-05-10T12:31:21.101Z,60.40
2019-05-10T12:33:50.577Z,60.40
2019-05-10T12:36:26.063Z,60.30
2019-05-10T12:38:49.533Z,60.20
2019-05-10T12:41:18.212Z,59.40
2019-05-10T12:43:49.437Z,60.30
2019-05-10T12:46:20.609Z,60.60
2019-05-10T12:48:48.762Z,60.70
2019-05-10T12:51:20.997Z,60.90
2019-05-10T12:53:49.833Z,60.60
2019-05-10T12:56:18.640Z,60.80
2019-05-10T13:02:25.168Z,61.20
2019-05-10T13:05:01.342Z,61.40
2019-05-10T13:08:23.414Z,61.40
2019-05-10T13:10:51.690Z,61.70
2019-05-10T13:13:41.579Z,62.00
2019-05-10T13:19:19.884Z,62.30
2019-05-10T13:25:20.896Z,62.30
2019-05-10T13:27:49.611Z,62.20
2019-05-10T13:30:28.073Z,62.20
2019-05-10T13:32:58.837Z,62.50
2019-05-10T13:35:29.181Z,62.10
2019-05-10T13:38:04.130Z,62.30
2019-05-10T13:41:04.733Z,62.30
2019-05-10T13:43:49.932Z,62.20
2019-05-10T13:46:22.719Z,62.20
2019-05-10T13:48:51.557Z,62.10
2019-05-10T13:51:20.323Z,62.30
2019-05-10T13:53:48.841Z,62.30
2019-05-10T13:56:17.511Z,62.40
2019-05-10T13:59:15.094Z,62.40
2019-05-10T14:01:49.758Z,62.50
2019-05-10T14:04:17.949Z,62.40
2019-05-10T14:06:47.455Z,62.50
2019-05-10T14:09:28.879Z,62.60
2019-05-10T14:11:57.753Z,62.60
2019-05-10T14:14:26.892Z,62.60
2019-05-10T14:16:55.797Z,62.50
2019-05-10T14:19:49.270Z,62.60
2019-05-10T14:21:56.545Z,62.60
2019-05-10T14:24:25.250Z,62.50
2019-05-10T14:26:57.113Z,62.90
2019-05-10T14:29:34.354Z,62.90
2019-05-10T14:31:56.685Z,62.90
2019-05-10T14:34:25.194Z,62.90
2019-05-10T14:36:53.760Z,62.60
2019-05-10T14:39:25.614Z,62.60
2019-05-10T14:41:54.283Z,62.40
2019-05-10T14:44:27.967Z,62.40
2019-05-10T14:46:56.838Z,62.30
2019-05-10T14:49:25.505Z,62.30
2019-05-10T14:51:58.838Z,62.60
2019-05-10T14:54:24.301Z,62.60
2019-05-10T14:56:54.105Z,62.50
2019-05-10T14:59:24.438Z,62.30
2019-05-10T15:01:54.538Z,62.30
2019-05-10T15:06:54.921Z,62.90
2019-05-10T15:09:24.184Z,62.20
2019-05-10T15:11:52.827Z,62.10
2019-05-10T15:14:21.401Z,61.70
2019-05-10T15:16:49.990Z,61.70
2019-05-10T15:19:18.580Z,61.90
2019-05-10T15:21:47.237Z,61.00
2019-05-10T15:24:15.859Z,62.00
2019-05-10T15:26:46.086Z,62.20
2019-05-10T15:29:21.450Z,61.00
2019-05-10T15:31:44.909Z,62.20
2019-05-10T15:34:13.464Z,62.20
2019-05-10T15:36:44.913Z,61.70
2019-05-10T15:39:23.075Z,62.00
2019-05-10T15:41:53.689Z,60.90
2019-05-10T15:44:30.220Z,62.20
2019-05-10T15:46:51.518Z,62.30
2019-05-10T15:51:56.828Z,62.20
2019-05-10T15:54:21.727Z,62.20
2019-05-10T15:56:50.283Z,62.30
2019-05-10T15:59:21.257Z,62.40
2019-05-10T15:59:23.954Z,62.20
2019-05-10T16:01:50.053Z,63.10
2019-05-10T16:04:18.596Z,62.30
2019-05-10T16:06:47.313Z,62.30
2019-05-10T16:09:17.811Z,62.40
2019-05-10T16:11:55.800Z,62.40
2019-05-10T16:14:24.990Z,62.30
2019-05-10T16:16:56.139Z,62.30
2019-05-10T16:19:24.713Z,62.40
2019-05-10T16:21:58.096Z,62.30
2019-05-10T16:24:27.926Z,62.30
2019-05-10T16:27:00.183Z,62.40
2019-05-10T16:29:33.639Z,62.30
2019-05-10T16:32:02.208Z,59.70
2019-05-10T16:34:37.587Z,62.30
2019-05-10T16:37:06.413Z,62.20
2019-05-10T16:39:35.037Z,61.50
2019-05-10T16:42:05.465Z,62.90
2019-05-10T16:44:45.608Z,62.10
2019-05-10T16:47:14.250Z,61.60
2019-05-10T16:49:53.181Z,62.10
2019-05-10T16:52:29.706Z,61.90
2019-05-10T16:55:03.507Z,62.00
2019-05-10T16:57:32.128Z,61.90
2019-05-10T17:00:01.975Z,61.90
2019-05-10T17:02:29.601Z,61.70
2019-05-10T17:04:58.169Z,61.70
2019-05-10T17:07:26.868Z,62.00
2019-05-10T17:09:57.925Z,62.10
2019-05-10T17:12:27.629Z,62.10
2019-05-10T17:15:02.805Z,62.10
2019-05-10T17:17:31.354Z,62.10
2019-05-10T17:20:00.023Z,61.80
2019-05-10T17:22:28.621Z,62.00
2019-05-10T17:25:03.181Z,61.90
2019-05-10T17:27:29.524Z,62.00
2019-05-10T17:29:58.057Z,61.90
2019-05-10T17:32:26.730Z,62.10
2019-05-10T17:34:59.327Z,62.10
2019-05-10T17:37:29.829Z,62.10
2019-05-10T17:39:58.944Z,61.90
2019-05-10T17:42:35.546Z,62.40
2019-05-10T17:45:07.010Z,62.10
2019-05-10T17:47:40.332Z,62.40
2019-05-10T17:59:59.795Z,62.50
2019-05-10T18:24:59.742Z,63.10
2019-05-10T20:19:19.712Z,65.80
2019-05-10T20:21:48.353Z,65.90
2019-05-10T20:24:18.299Z,65.80
2019-05-10T20:26:46.722Z,65.80
2019-05-10T20:29:15.269Z,65.80
2019-05-10T20:31:45.043Z,65.80
2019-05-10T20:34:13.818Z,65.90
2019-05-10T20:36:44.021Z,65.70
2019-05-10T20:39:12.561Z,65.60
2019-05-10T20:41:41.169Z,65.70
2019-05-10T20:44:10.771Z,65.60
2019-05-10T20:46:39.285Z,66.40
2019-05-10T20:49:07.879Z,65.60
2019-05-10T20:51:36.444Z,65.60
2019-05-10T20:54:08.220Z,65.50
2019-05-10T20:56:36.756Z,65.60
2019-05-10T20:59:05.230Z,65.50
2019-05-10T21:01:36.760Z,65.50
2019-05-10T21:04:05.235Z,65.50
2019-05-10T21:06:37.525Z,65.50
2019-05-10T21:09:06.716Z,65.40
2019-05-10T21:11:35.625Z,65.50
2019-05-10T21:14:04.197Z,65.40
2019-05-10T21:16:32.747Z,65.40
2019-05-10T21:19:01.439Z,65.40
2019-05-10T21:21:30.744Z,65.40
2019-05-10T21:23:59.243Z,65.40
2019-05-10T21:26:27.679Z,65.40
2019-05-10T21:28:56.148Z,65.40
2019-05-10T21:31:26.314Z,65.40
2019-05-10T21:34:08.521Z,65.30
2019-05-10T21:36:25.046Z,65.30
2019-05-10T21:38:55.115Z,65.30
2019-05-10T21:41:27.596Z,65.40
2019-05-10T21:43:57.562Z,65.40
2019-05-10T21:46:26.977Z,65.30
2019-05-10T21:48:55.494Z,65.40
2019-05-10T21:51:24.101Z,65.40
2019-05-10T21:53:52.677Z,65.30
2019-05-10T21:56:21.255Z,65.30
2019-05-10T21:58:49.815Z,65.30
2019-05-10T22:01:18.741Z,65.30
2019-05-10T22:03:47.490Z,65.30
2019-05-10T22:06:16.199Z,65.30
2019-05-10T22:08:49.322Z,65.30
2019-05-10T22:11:21.325Z,65.30
2019-05-10T22:13:48.766Z,65.30
2019-05-10T22:16:17.429Z,65.20
2019-05-10T22:18:47.971Z,65.30
2019-05-10T22:21:16.674Z,65.30
2019-05-10T22:23:46.874Z,65.40
2019-05-10T22:26:15.570Z,65.30
2019-05-10T22:28:44.174Z,65.30
2019-05-10T22:31:12.772Z,65.30
2019-05-10T22:33:41.245Z,65.20
2019-05-10T22:36:10.860Z,65.30
2019-05-10T22:38:39.366Z,65.20
2019-05-10T22:41:10.535Z,66.10
2019-05-10T22:43:39.065Z,65.30
2019-05-10T22:46:09.270Z,65.30
2019-05-10T22:48:39.501Z,65.40
2019-05-10T22:51:09.300Z,65.40
2019-05-10T22:53:38.021Z,65.40
2019-05-10T22:56:06.743Z,65.40
2019-05-10T22:58:35.293Z,65.40
2019-05-10T23:01:05.360Z,65.40
2019-05-10T23:03:34.002Z,65.50
2019-05-10T23:06:04.066Z,65.60
2019-05-10T23:08:32.700Z,65.60
2019-05-10T23:11:01.505Z,65.50
2019-05-10T23:13:32.520Z,65.50
2019-05-10T23:16:09.933Z,65.80
2019-05-10T23:18:38.441Z,65.70
2019-05-10T23:21:06.974Z,65.60
2019-05-10T23:23:36.776Z,65.50
2019-05-10T23:26:05.328Z,65.60
2019-05-10T23:28:33.823Z,65.60
2019-05-10T23:31:02.385Z,65.60
2019-05-10T23:33:30.999Z,65.60
2019-05-10T23:36:01.246Z,65.80
2019-05-10T23:38:29.951Z,65.80
2019-05-10T23:40:58.780Z,65.80
2019-05-10T23:43:28.669Z,65.80
2019-05-10T23:45:58.310Z,65.80
2019-05-10T23:48:28.550Z,65.90
2019-05-10T23:50:58.691Z,65.90
2019-05-10T23:53:27.225Z,65.90
2019-05-10T23:55:55.766Z,66.00
2019-05-10T23:58:27.399Z,66.00
